sensor_id;sensor_type;location;lat;lon;timestamp;temperature;humidity
25688;DHT22;17407;51.120;3.702;2023-08-06T00:00:25;16.20;99.90
25688;DHT22;17407;51.120;3.702;2023-08-06T00:02:51;16.30;99.90
25688;DHT22;17407;51.120;3.702;2023-08-06T00:05:17;16.20;99.90
25688;DHT22;17407;51.120;3.702;2023-08-06T00:07:50;16.20;99.90
25688;DHT22;17407;51.120;3.702;2023-08-06T00:10:16;16.30;99.90
25688;DHT22;17407;51.120;3.702;2023-08-06T00:12:43;16.30;99.90
25688;DHT22;17407;51.120;3.702;2023-08-06T00:15:09;16.20;99.90
25688;DHT22;17407;51.120;3.702;2023-08-06T00:17:35;16.20;99.90
25688;DHT22;17407;51.120;3.702;2023-08-06T00:20:02;16.10;99.90
25688;DHT22;17407;51.120;3.702;2023-08-06T00:22:34;16.10;99.90
25688;DHT22;17407;51.120;3.702;2023-08-06T00:25:00;16.10;99.90
25688;DHT22;17407;51.120;3.702;2023-08-06T00:27:26;16.20;99.90
25688;DHT22;17407;51.120;3.702;2023-08-06T00:29:52;16.20;99.90
25688;DHT22;17407;51.120;3.702;2023-08-06T00:32:18;16.20;99.90
25688;DHT22;17407;51.120;3.702;2023-08-06T00:34:43;16.20;99.90
25688;DHT22;17407;51.120;3.702;2023-08-06T00:37:09;16.20;99.90
25688;DHT22;17407;51.120;3.702;2023-08-06T00:39:35;16.30;99.90
25688;DHT22;17407;51.120;3.702;2023-08-06T00:42:00;16.40;99.90
25688;DHT22;17407;51.120;3.702;2023-08-06T00:44:26;16.50;99.90
25688;DHT22;17407;51.120;3.702;2023-08-06T00:46:51;16.40;99.90
25688;DHT22;17407;51.120;3.702;2023-08-06T00:49:17;16.50;99.90
25688;DHT22;17407;51.120;3.702;2023-08-06T00:51:43;16.40;99.90
25688;DHT22;17407;51.120;3.702;2023-08-06T00:54:09;16.40;99.90
25688;DHT22;17407;51.120;3.702;2023-08-06T00:56:35;16.40;99.90
25688;DHT22;17407;51.120;3.702;2023-08-06T00:59:02;16.60;99.90
25688;DHT22;17407;51.120;3.702;2023-08-06T01:01:28;16.60;99.90
25688;DHT22;17407;51.120;3.702;2023-08-06T01:03:54;16.80;99.90
25688;DHT22;17407;51.120;3.702;2023-08-06T01:06:45;17.00;99.90
25688;DHT22;17407;51.120;3.702;2023-08-06T01:12:06;16.80;99.90
25688;DHT22;17407;51.120;3.702;2023-08-06T01:17:12;16.80;99.90
25688;DHT22;17407;51.120;3.702;2023-08-06T01:19:38;16.80;99.90
25688;DHT22;17407;51.120;3.702;2023-08-06T01:22:04;16.90;99.90
25688;DHT22;17407;51.120;3.702;2023-08-06T01:24:30;16.80;99.90
25688;DHT22;17407;51.120;3.702;2023-08-06T01:27:06;16.80;99.90
25688;DHT22;17407;51.120;3.702;2023-08-06T01:29:39;16.80;99.90
25688;DHT22;17407;51.120;3.702;2023-08-06T01:32:08;16.90;99.90
25688;DHT22;17407;51.120;3.702;2023-08-06T01:34:39;16.90;99.90
25688;DHT22;17407;51.120;3.702;2023-08-06T01:37:06;16.80;99.90
25688;DHT22;17407;51.120;3.702;2023-08-06T01:39:33;16.70;99.90
25688;DHT22;17407;51.120;3.702;2023-08-06T01:41:59;16.80;99.90
25688;DHT22;17407;51.120;3.702;2023-08-06T01:44:25;16.80;99.90
25688;DHT22;17407;51.120;3.702;2023-08-06T01:46:51;16.80;99.90
25688;DHT22;17407;51.120;3.702;2023-08-06T01:49:16;16.70;99.90
25688;DHT22;17407;51.120;3.702;2023-08-06T01:51:42;16.70;99.90
25688;DHT22;17407;51.120;3.702;2023-08-06T01:54:07;16.70;99.90
25688;DHT22;17407;51.120;3.702;2023-08-06T01:56:33;16.70;99.90
25688;DHT22;17407;51.120;3.702;2023-08-06T01:58:59;16.50;99.90
25688;DHT22;17407;51.120;3.702;2023-08-06T02:01:24;16.60;99.90
25688;DHT22;17407;51.120;3.702;2023-08-06T02:03:50;16.50;99.90
25688;DHT22;17407;51.120;3.702;2023-08-06T02:06:16;16.50;99.90
25688;DHT22;17407;51.120;3.702;2023-08-06T02:08:42;16.50;99.90
25688;DHT22;17407;51.120;3.702;2023-08-06T02:11:07;16.30;99.90
25688;DHT22;17407;51.120;3.702;2023-08-06T02:13:33;16.20;99.90
25688;DHT22;17407;51.120;3.702;2023-08-06T02:15:58;16.30;99.90
25688;DHT22;17407;51.120;3.702;2023-08-06T02:18:24;16.30;99.90
25688;DHT22;17407;51.120;3.702;2023-08-06T02:20:59;16.10;99.90
25688;DHT22;17407;51.120;3.702;2023-08-06T02:23:25;16.00;99.90
25688;DHT22;17407;51.120;3.702;2023-08-06T02:26:04;16.00;99.90
25688;DHT22;17407;51.120;3.702;2023-08-06T02:28:32;16.00;99.90
25688;DHT22;17407;51.120;3.702;2023-08-06T02:30:58;16.00;99.90
25688;DHT22;17407;51.120;3.702;2023-08-06T02:33:23;16.00;99.90
25688;DHT22;17407;51.120;3.702;2023-08-06T02:35:49;16.00;99.90
25688;DHT22;17407;51.120;3.702;2023-08-06T02:38:15;15.90;99.90
25688;DHT22;17407;51.120;3.702;2023-08-06T02:40:47;15.80;99.90
25688;DHT22;17407;51.120;3.702;2023-08-06T02:43:13;15.70;99.90
25688;DHT22;17407;51.120;3.702;2023-08-06T02:45:39;15.70;99.90
25688;DHT22;17407;51.120;3.702;2023-08-06T02:48:04;15.50;99.90
25688;DHT22;17407;51.120;3.702;2023-08-06T02:50:30;15.50;99.90
25688;DHT22;17407;51.120;3.702;2023-08-06T02:52:55;15.40;99.90
25688;DHT22;17407;51.120;3.702;2023-08-06T02:55:21;15.30;99.90
25688;DHT22;17407;51.120;3.702;2023-08-06T02:57:47;15.30;99.90
25688;DHT22;17407;51.120;3.702;2023-08-06T03:00:12;15.20;99.90
25688;DHT22;17407;51.120;3.702;2023-08-06T03:02:38;15.30;99.90
25688;DHT22;17407;51.120;3.702;2023-08-06T03:05:04;15.30;99.90
25688;DHT22;17407;51.120;3.702;2023-08-06T03:07:31;15.30;99.90
25688;DHT22;17407;51.120;3.702;2023-08-06T03:09:59;15.20;99.90
25688;DHT22;17407;51.120;3.702;2023-08-06T03:12:26;15.20;99.90
25688;DHT22;17407;51.120;3.702;2023-08-06T03:14:52;15.30;99.90
25688;DHT22;17407;51.120;3.702;2023-08-06T03:17:18;15.30;99.90
25688;DHT22;17407;51.120;3.702;2023-08-06T03:19:43;15.30;99.90
25688;DHT22;17407;51.120;3.702;2023-08-06T03:22:09;15.30;99.90
25688;DHT22;17407;51.120;3.702;2023-08-06T03:24:35;15.20;99.90
25688;DHT22;17407;51.120;3.702;2023-08-06T03:27:00;15.30;99.90
25688;DHT22;17407;51.120;3.702;2023-08-06T03:29:26;15.40;99.90
25688;DHT22;17407;51.120;3.702;2023-08-06T03:31:52;15.40;99.90
25688;DHT22;17407;51.120;3.702;2023-08-06T03:34:17;15.40;99.90
25688;DHT22;17407;51.120;3.702;2023-08-06T03:36:43;15.30;99.90
25688;DHT22;17407;51.120;3.702;2023-08-06T03:39:09;15.40;99.90
25688;DHT22;17407;51.120;3.702;2023-08-06T03:41:34;15.40;99.90
25688;DHT22;17407;51.120;3.702;2023-08-06T03:44:00;15.40;99.90
25688;DHT22;17407;51.120;3.702;2023-08-06T03:46:29;15.50;99.90
25688;DHT22;17407;51.120;3.702;2023-08-06T03:48:55;15.50;99.90
25688;DHT22;17407;51.120;3.702;2023-08-06T03:51:22;15.50;99.90
25688;DHT22;17407;51.120;3.702;2023-08-06T03:53:47;15.40;99.90
25688;DHT22;17407;51.120;3.702;2023-08-06T03:56:13;15.40;99.90
25688;DHT22;17407;51.120;3.702;2023-08-06T03:58:39;15.50;99.90
25688;DHT22;17407;51.120;3.702;2023-08-06T04:01:04;15.60;99.90
25688;DHT22;17407;51.120;3.702;2023-08-06T04:03:30;15.70;99.90
25688;DHT22;17407;51.120;3.702;2023-08-06T04:05:56;15.80;99.90
25688;DHT22;17407;51.120;3.702;2023-08-06T04:08:21;15.70;99.90
25688;DHT22;17407;51.120;3.702;2023-08-06T04:10:53;15.60;99.90
25688;DHT22;17407;51.120;3.702;2023-08-06T04:13:19;15.60;99.90
25688;DHT22;17407;51.120;3.702;2023-08-06T04:15:45;15.50;99.90
25688;DHT22;17407;51.120;3.702;2023-08-06T04:18:11;15.50;99.90
25688;DHT22;17407;51.120;3.702;2023-08-06T04:20:46;15.40;99.90
25688;DHT22;17407;51.120;3.702;2023-08-06T04:23:13;15.40;99.90
25688;DHT22;17407;51.120;3.702;2023-08-06T04:25:39;15.50;99.90
25688;DHT22;17407;51.120;3.702;2023-08-06T04:28:05;15.50;99.90
25688;DHT22;17407;51.120;3.702;2023-08-06T04:30:30;15.50;99.90
25688;DHT22;17407;51.120;3.702;2023-08-06T04:32:59;15.60;99.90
25688;DHT22;17407;51.120;3.702;2023-08-06T04:35:25;15.50;99.90
25688;DHT22;17407;51.120;3.702;2023-08-06T04:37:50;15.40;99.90
25688;DHT22;17407;51.120;3.702;2023-08-06T04:40:16;15.50;99.90
25688;DHT22;17407;51.120;3.702;2023-08-06T04:42:42;15.50;99.90
25688;DHT22;17407;51.120;3.702;2023-08-06T04:45:08;15.40;99.90
25688;DHT22;17407;51.120;3.702;2023-08-06T04:47:34;15.50;99.90
25688;DHT22;17407;51.120;3.702;2023-08-06T04:49:59;15.50;99.90
25688;DHT22;17407;51.120;3.702;2023-08-06T04:52:25;15.40;99.90
25688;DHT22;17407;51.120;3.702;2023-08-06T04:54:54;15.50;99.90
25688;DHT22;17407;51.120;3.702;2023-08-06T04:57:19;15.50;99.90
25688;DHT22;17407;51.120;3.702;2023-08-06T04:59:45;15.60;99.90
25688;DHT22;17407;51.120;3.702;2023-08-06T05:02:11;15.50;99.90
25688;DHT22;17407;51.120;3.702;2023-08-06T05:04:36;15.40;99.90
25688;DHT22;17407;51.120;3.702;2023-08-06T05:07:03;15.40;99.90
25688;DHT22;17407;51.120;3.702;2023-08-06T05:09:29;15.40;99.90
25688;DHT22;17407;51.120;3.702;2023-08-06T05:11:54;15.30;99.90
25688;DHT22;17407;51.120;3.702;2023-08-06T05:14:20;15.30;99.90
25688;DHT22;17407;51.120;3.702;2023-08-06T05:16:45;15.30;99.90
25688;DHT22;17407;51.120;3.702;2023-08-06T05:19:11;15.30;99.90
25688;DHT22;17407;51.120;3.702;2023-08-06T05:21:37;15.30;99.90
25688;DHT22;17407;51.120;3.702;2023-08-06T05:24:02;15.40;99.90
25688;DHT22;17407;51.120;3.702;2023-08-06T05:26:28;15.50;99.90
25688;DHT22;17407;51.120;3.702;2023-08-06T05:28:54;15.50;99.90
25688;DHT22;17407;51.120;3.702;2023-08-06T05:31:19;15.60;99.90
25688;DHT22;17407;51.120;3.702;2023-08-06T05:33:45;15.50;99.90
25688;DHT22;17407;51.120;3.702;2023-08-06T05:36:10;15.50;99.90
25688;DHT22;17407;51.120;3.702;2023-08-06T05:38:36;15.60;99.90
25688;DHT22;17407;51.120;3.702;2023-08-06T05:41:02;15.60;99.90
25688;DHT22;17407;51.120;3.702;2023-08-06T05:43:27;15.70;99.90
25688;DHT22;17407;51.120;3.702;2023-08-06T05:45:53;15.60;99.90
25688;DHT22;17407;51.120;3.702;2023-08-06T05:48:19;15.60;99.90
25688;DHT22;17407;51.120;3.702;2023-08-06T05:50:44;15.70;99.90
25688;DHT22;17407;51.120;3.702;2023-08-06T05:53:10;15.70;99.90
25688;DHT22;17407;51.120;3.702;2023-08-06T05:55:36;15.70;99.90
25688;DHT22;17407;51.120;3.702;2023-08-06T05:58:01;15.70;99.90
25688;DHT22;17407;51.120;3.702;2023-08-06T06:00:27;15.70;99.90
25688;DHT22;17407;51.120;3.702;2023-08-06T06:02:53;15.60;99.90
25688;DHT22;17407;51.120;3.702;2023-08-06T06:05:18;15.50;99.90
25688;DHT22;17407;51.120;3.702;2023-08-06T06:07:44;15.50;99.90
25688;DHT22;17407;51.120;3.702;2023-08-06T06:10:09;15.50;99.90
25688;DHT22;17407;51.120;3.702;2023-08-06T06:12:35;15.50;99.90
25688;DHT22;17407;51.120;3.702;2023-08-06T06:15:01;15.60;99.90
25688;DHT22;17407;51.120;3.702;2023-08-06T06:17:27;15.60;99.90
25688;DHT22;17407;51.120;3.702;2023-08-06T06:19:53;15.60;99.90
25688;DHT22;17407;51.120;3.702;2023-08-06T06:22:18;15.60;99.90
25688;DHT22;17407;51.120;3.702;2023-08-06T06:24:44;15.50;99.90
25688;DHT22;17407;51.120;3.702;2023-08-06T06:27:10;15.40;99.90
25688;DHT22;17407;51.120;3.702;2023-08-06T06:29:35;15.30;99.90
25688;DHT22;17407;51.120;3.702;2023-08-06T06:32:01;15.30;99.90
25688;DHT22;17407;51.120;3.702;2023-08-06T06:34:27;15.20;99.90
25688;DHT22;17407;51.120;3.702;2023-08-06T06:36:52;15.10;99.90
25688;DHT22;17407;51.120;3.702;2023-08-06T06:39:18;15.10;99.90
25688;DHT22;17407;51.120;3.702;2023-08-06T06:41:43;15.10;99.90
25688;DHT22;17407;51.120;3.702;2023-08-06T06:44:09;15.10;99.90
25688;DHT22;17407;51.120;3.702;2023-08-06T06:46:35;15.20;99.90
25688;DHT22;17407;51.120;3.702;2023-08-06T06:49:01;15.30;99.90
25688;DHT22;17407;51.120;3.702;2023-08-06T06:51:26;15.30;99.90
25688;DHT22;17407;51.120;3.702;2023-08-06T06:53:52;15.40;99.90
25688;DHT22;17407;51.120;3.702;2023-08-06T06:56:18;15.40;99.90
25688;DHT22;17407;51.120;3.702;2023-08-06T06:58:43;15.50;99.90
25688;DHT22;17407;51.120;3.702;2023-08-06T07:01:09;15.50;99.90
25688;DHT22;17407;51.120;3.702;2023-08-06T07:03:37;15.60;99.90
25688;DHT22;17407;51.120;3.702;2023-08-06T07:06:03;15.60;99.90
25688;DHT22;17407;51.120;3.702;2023-08-06T07:08:29;15.70;99.90
25688;DHT22;17407;51.120;3.702;2023-08-06T07:11:04;15.70;99.90
25688;DHT22;17407;51.120;3.702;2023-08-06T07:13:31;15.70;99.90
25688;DHT22;17407;51.120;3.702;2023-08-06T07:15:57;15.70;99.90
25688;DHT22;17407;51.120;3.702;2023-08-06T07:18:23;15.80;99.90
25688;DHT22;17407;51.120;3.702;2023-08-06T07:20:50;15.80;99.90
25688;DHT22;17407;51.120;3.702;2023-08-06T07:23:16;15.80;99.90
25688;DHT22;17407;51.120;3.702;2023-08-06T07:25:42;15.80;99.90
25688;DHT22;17407;51.120;3.702;2023-08-06T07:28:08;15.70;99.90
25688;DHT22;17407;51.120;3.702;2023-08-06T07:30:33;15.70;99.90
25688;DHT22;17407;51.120;3.702;2023-08-06T07:33:01;15.60;99.90
25688;DHT22;17407;51.120;3.702;2023-08-06T07:35:28;15.60;99.90
25688;DHT22;17407;51.120;3.702;2023-08-06T07:37:54;15.70;99.90
25688;DHT22;17407;51.120;3.702;2023-08-06T07:40:20;15.80;99.90
25688;DHT22;17407;51.120;3.702;2023-08-06T07:42:45;15.70;99.90
25688;DHT22;17407;51.120;3.702;2023-08-06T07:45:11;15.70;99.90
25688;DHT22;17407;51.120;3.702;2023-08-06T07:47:36;15.70;99.90
25688;DHT22;17407;51.120;3.702;2023-08-06T07:50:02;15.70;99.90
25688;DHT22;17407;51.120;3.702;2023-08-06T07:52:28;15.70;99.90
25688;DHT22;17407;51.120;3.702;2023-08-06T07:54:53;15.80;99.90
25688;DHT22;17407;51.120;3.702;2023-08-06T07:57:19;15.80;99.90
25688;DHT22;17407;51.120;3.702;2023-08-06T07:59:45;15.80;99.90
25688;DHT22;17407;51.120;3.702;2023-08-06T08:02:10;15.90;99.90
25688;DHT22;17407;51.120;3.702;2023-08-06T08:04:36;16.00;99.90
25688;DHT22;17407;51.120;3.702;2023-08-06T08:07:01;16.00;99.90
25688;DHT22;17407;51.120;3.702;2023-08-06T08:09:27;16.00;99.90
25688;DHT22;17407;51.120;3.702;2023-08-06T08:11:53;15.90;99.90
25688;DHT22;17407;51.120;3.702;2023-08-06T08:14:19;15.80;99.90
25688;DHT22;17407;51.120;3.702;2023-08-06T08:16:44;15.90;99.90
25688;DHT22;17407;51.120;3.702;2023-08-06T08:19:10;16.00;99.90
25688;DHT22;17407;51.120;3.702;2023-08-06T08:21:36;16.10;99.90
25688;DHT22;17407;51.120;3.702;2023-08-06T08:24:04;16.10;99.90
25688;DHT22;17407;51.120;3.702;2023-08-06T08:26:30;16.10;99.90
25688;DHT22;17407;51.120;3.702;2023-08-06T08:28:56;16.10;99.90
25688;DHT22;17407;51.120;3.702;2023-08-06T08:31:22;16.00;99.90
25688;DHT22;17407;51.120;3.702;2023-08-06T08:33:47;16.00;99.90
25688;DHT22;17407;51.120;3.702;2023-08-06T08:36:13;16.00;99.90
25688;DHT22;17407;51.120;3.702;2023-08-06T08:38:39;16.00;99.90
25688;DHT22;17407;51.120;3.702;2023-08-06T08:41:05;15.90;99.90
25688;DHT22;17407;51.120;3.702;2023-08-06T08:43:31;15.90;99.90
25688;DHT22;17407;51.120;3.702;2023-08-06T08:46:00;15.90;99.90
25688;DHT22;17407;51.120;3.702;2023-08-06T08:48:27;15.80;99.90
25688;DHT22;17407;51.120;3.702;2023-08-06T08:50:53;15.90;99.90
25688;DHT22;17407;51.120;3.702;2023-08-06T08:53:21;15.90;99.90
25688;DHT22;17407;51.120;3.702;2023-08-06T08:55:48;15.90;99.90
25688;DHT22;17407;51.120;3.702;2023-08-06T08:58:15;15.70;99.90
25688;DHT22;17407;51.120;3.702;2023-08-06T09:00:46;15.70;99.90
25688;DHT22;17407;51.120;3.702;2023-08-06T09:03:13;15.70;99.90
25688;DHT22;17407;51.120;3.702;2023-08-06T09:05:44;15.80;99.90
25688;DHT22;17407;51.120;3.702;2023-08-06T09:08:11;15.80;99.90
25688;DHT22;17407;51.120;3.702;2023-08-06T09:10:39;15.70;99.90
25688;DHT22;17407;51.120;3.702;2023-08-06T09:13:05;15.70;99.90
25688;DHT22;17407;51.120;3.702;2023-08-06T09:15:32;15.70;99.90
25688;DHT22;17407;51.120;3.702;2023-08-06T09:17:59;15.70;99.90
25688;DHT22;17407;51.120;3.702;2023-08-06T09:20:24;15.70;99.90
25688;DHT22;17407;51.120;3.702;2023-08-06T09:22:53;15.80;99.90
25688;DHT22;17407;51.120;3.702;2023-08-06T09:25:23;15.90;99.90
25688;DHT22;17407;51.120;3.702;2023-08-06T09:27:51;16.00;99.90
25688;DHT22;17407;51.120;3.702;2023-08-06T09:30:37;16.00;99.90
25688;DHT22;17407;51.120;3.702;2023-08-06T09:33:03;16.10;99.90
25688;DHT22;17407;51.120;3.702;2023-08-06T09:35:30;16.20;99.90
25688;DHT22;17407;51.120;3.702;2023-08-06T09:38:06;16.30;99.90
25688;DHT22;17407;51.120;3.702;2023-08-06T09:40:36;16.50;99.90
25688;DHT22;17407;51.120;3.702;2023-08-06T09:43:02;16.30;99.90
25688;DHT22;17407;51.120;3.702;2023-08-06T09:45:32;16.20;99.90
25688;DHT22;17407;51.120;3.702;2023-08-06T09:47:59;16.00;99.90
25688;DHT22;17407;51.120;3.702;2023-08-06T09:50:30;15.90;99.90
25688;DHT22;17407;51.120;3.702;2023-08-06T09:52:57;15.70;99.90
25688;DHT22;17407;51.120;3.702;2023-08-06T09:55:24;15.60;99.90
25688;DHT22;17407;51.120;3.702;2023-08-06T09:57:51;15.60;99.90
25688;DHT22;17407;51.120;3.702;2023-08-06T10:00:17;15.70;99.90
25688;DHT22;17407;51.120;3.702;2023-08-06T10:02:43;15.70;99.90
25688;DHT22;17407;51.120;3.702;2023-08-06T10:05:10;15.80;99.90
25688;DHT22;17407;51.120;3.702;2023-08-06T10:07:36;15.90;99.90
25688;DHT22;17407;51.120;3.702;2023-08-06T10:10:05;15.90;99.90
25688;DHT22;17407;51.120;3.702;2023-08-06T10:12:40;15.90;99.90
25688;DHT22;17407;51.120;3.702;2023-08-06T10:15:12;15.90;99.90
25688;DHT22;17407;51.120;3.702;2023-08-06T10:17:39;16.10;99.90
25688;DHT22;17407;51.120;3.702;2023-08-06T10:20:07;16.10;99.90
25688;DHT22;17407;51.120;3.702;2023-08-06T10:22:34;16.10;99.90
25688;DHT22;17407;51.120;3.702;2023-08-06T10:25:01;16.10;99.90
25688;DHT22;17407;51.120;3.702;2023-08-06T10:27:39;16.10;99.90
25688;DHT22;17407;51.120;3.702;2023-08-06T10:30:28;16.10;99.90
25688;DHT22;17407;51.120;3.702;2023-08-06T10:38:24;16.10;99.90
25688;DHT22;17407;51.120;3.702;2023-08-06T10:43:27;16.10;99.90
25688;DHT22;17407;51.120;3.702;2023-08-06T10:45:54;16.10;99.90
25688;DHT22;17407;51.120;3.702;2023-08-06T10:48:42;16.00;99.90
25688;DHT22;17407;51.120;3.702;2023-08-06T10:51:11;16.00;99.90
25688;DHT22;17407;51.120;3.702;2023-08-06T10:53:42;16.00;99.90
25688;DHT22;17407;51.120;3.702;2023-08-06T10:56:15;16.10;99.90
25688;DHT22;17407;51.120;3.702;2023-08-06T10:58:42;16.00;99.90
25688;DHT22;17407;51.120;3.702;2023-08-06T11:01:09;15.90;99.90
25688;DHT22;17407;51.120;3.702;2023-08-06T11:03:36;15.90;99.90
25688;DHT22;17407;51.120;3.702;2023-08-06T11:06:02;15.90;99.90
25688;DHT22;17407;51.120;3.702;2023-08-06T11:08:33;16.00;99.90
25688;DHT22;17407;51.120;3.702;2023-08-06T11:11:08;16.00;99.90
25688;DHT22;17407;51.120;3.702;2023-08-06T11:13:36;16.00;99.90
25688;DHT22;17407;51.120;3.702;2023-08-06T11:16:03;15.80;99.90
25688;DHT22;17407;51.120;3.702;2023-08-06T11:18:29;15.90;99.90
25688;DHT22;17407;51.120;3.702;2023-08-06T11:20:55;15.80;99.90
25688;DHT22;17407;51.120;3.702;2023-08-06T11:23:20;15.80;99.90
25688;DHT22;17407;51.120;3.702;2023-08-06T11:25:46;15.90;99.90
25688;DHT22;17407;51.120;3.702;2023-08-06T11:28:12;16.10;99.90
25688;DHT22;17407;51.120;3.702;2023-08-06T11:30:38;16.30;99.90
25688;DHT22;17407;51.120;3.702;2023-08-06T11:33:07;16.40;99.90
25688;DHT22;17407;51.120;3.702;2023-08-06T11:35:35;16.40;99.90
25688;DHT22;17407;51.120;3.702;2023-08-06T11:38:01;16.50;99.90
25688;DHT22;17407;51.120;3.702;2023-08-06T11:40:27;16.50;99.90
25688;DHT22;17407;51.120;3.702;2023-08-06T11:42:53;16.60;99.90
25688;DHT22;17407;51.120;3.702;2023-08-06T11:45:22;16.70;99.90
25688;DHT22;17407;51.120;3.702;2023-08-06T11:47:50;16.80;99.90
25688;DHT22;17407;51.120;3.702;2023-08-06T11:50:25;16.80;99.90
25688;DHT22;17407;51.120;3.702;2023-08-06T11:52:58;16.70;99.90
25688;DHT22;17407;51.120;3.702;2023-08-06T11:55:26;16.30;99.90
25688;DHT22;17407;51.120;3.702;2023-08-06T11:57:54;15.90;99.90
25688;DHT22;17407;51.120;3.702;2023-08-06T12:00:21;15.90;99.90
25688;DHT22;17407;51.120;3.702;2023-08-06T12:02:49;15.90;99.90
25688;DHT22;17407;51.120;3.702;2023-08-06T12:05:16;16.10;99.90
25688;DHT22;17407;51.120;3.702;2023-08-06T12:07:53;16.30;99.90
25688;DHT22;17407;51.120;3.702;2023-08-06T12:10:21;16.60;99.90
25688;DHT22;17407;51.120;3.702;2023-08-06T12:12:47;16.90;99.90
25688;DHT22;17407;51.120;3.702;2023-08-06T12:15:13;16.90;99.90
25688;DHT22;17407;51.120;3.702;2023-08-06T12:17:39;17.00;99.90
25688;DHT22;17407;51.120;3.702;2023-08-06T12:20:06;16.90;99.90
25688;DHT22;17407;51.120;3.702;2023-08-06T12:22:33;16.70;99.90
25688;DHT22;17407;51.120;3.702;2023-08-06T12:25:01;16.60;99.90
25688;DHT22;17407;51.120;3.702;2023-08-06T12:27:29;16.60;99.90
25688;DHT22;17407;51.120;3.702;2023-08-06T12:29:54;16.70;99.90
25688;DHT22;17407;51.120;3.702;2023-08-06T12:32:20;16.80;99.90
25688;DHT22;17407;51.120;3.702;2023-08-06T12:34:45;16.70;99.90
25688;DHT22;17407;51.120;3.702;2023-08-06T12:37:11;16.60;99.90
25688;DHT22;17407;51.120;3.702;2023-08-06T12:39:37;16.70;99.90
25688;DHT22;17407;51.120;3.702;2023-08-06T12:42:04;16.70;99.90
25688;DHT22;17407;51.120;3.702;2023-08-06T12:44:30;16.70;99.90
25688;DHT22;17407;51.120;3.702;2023-08-06T12:46:56;16.70;99.90
25688;DHT22;17407;51.120;3.702;2023-08-06T12:49:22;16.60;99.90
25688;DHT22;17407;51.120;3.702;2023-08-06T12:51:49;16.50;99.90
25688;DHT22;17407;51.120;3.702;2023-08-06T12:54:16;16.50;99.90
25688;DHT22;17407;51.120;3.702;2023-08-06T12:56:43;16.60;99.90
25688;DHT22;17407;51.120;3.702;2023-08-06T12:59:08;16.80;99.90
25688;DHT22;17407;51.120;3.702;2023-08-06T13:01:34;16.70;99.90
25688;DHT22;17407;51.120;3.702;2023-08-06T13:04:00;16.70;99.90
25688;DHT22;17407;51.120;3.702;2023-08-06T13:06:26;16.70;99.90
25688;DHT22;17407;51.120;3.702;2023-08-06T13:08:52;16.70;99.90
25688;DHT22;17407;51.120;3.702;2023-08-06T13:11:17;16.50;99.90
25688;DHT22;17407;51.120;3.702;2023-08-06T13:13:44;16.40;99.90
25688;DHT22;17407;51.120;3.702;2023-08-06T13:16:10;16.20;99.90
25688;DHT22;17407;51.120;3.702;2023-08-06T13:18:35;16.30;99.90
25688;DHT22;17407;51.120;3.702;2023-08-06T13:21:01;16.30;99.90
25688;DHT22;17407;51.120;3.702;2023-08-06T13:23:27;16.10;99.90
25688;DHT22;17407;51.120;3.702;2023-08-06T13:25:53;16.00;99.90
25688;DHT22;17407;51.120;3.702;2023-08-06T13:28:19;15.80;99.90
25688;DHT22;17407;51.120;3.702;2023-08-06T13:30:45;15.80;99.90
25688;DHT22;17407;51.120;3.702;2023-08-06T13:33:11;15.70;99.90
25688;DHT22;17407;51.120;3.702;2023-08-06T13:35:37;15.70;99.90
25688;DHT22;17407;51.120;3.702;2023-08-06T13:38:04;15.80;99.90
25688;DHT22;17407;51.120;3.702;2023-08-06T13:40:33;16.00;99.90
25688;DHT22;17407;51.120;3.702;2023-08-06T13:42:59;16.10;99.90
25688;DHT22;17407;51.120;3.702;2023-08-06T13:45:25;16.20;99.90
25688;DHT22;17407;51.120;3.702;2023-08-06T13:47:51;16.20;99.90
25688;DHT22;17407;51.120;3.702;2023-08-06T13:50:17;16.30;99.90
25688;DHT22;17407;51.120;3.702;2023-08-06T13:52:42;16.40;99.90
25688;DHT22;17407;51.120;3.702;2023-08-06T13:55:08;16.50;99.90
25688;DHT22;17407;51.120;3.702;2023-08-06T13:57:34;16.50;99.90
25688;DHT22;17407;51.120;3.702;2023-08-06T14:00:01;16.80;99.90
25688;DHT22;17407;51.120;3.702;2023-08-06T14:02:27;17.10;99.90
25688;DHT22;17407;51.120;3.702;2023-08-06T14:04:53;17.40;99.90
25688;DHT22;17407;51.120;3.702;2023-08-06T14:07:19;17.60;99.90
25688;DHT22;17407;51.120;3.702;2023-08-06T14:09:45;18.00;99.90
25688;DHT22;17407;51.120;3.702;2023-08-06T14:12:12;18.40;99.90
25688;DHT22;17407;51.120;3.702;2023-08-06T14:14:38;18.70;99.90
25688;DHT22;17407;51.120;3.702;2023-08-06T14:17:04;18.80;99.90
25688;DHT22;17407;51.120;3.702;2023-08-06T14:19:30;18.80;99.90
25688;DHT22;17407;51.120;3.702;2023-08-06T14:21:55;18.70;99.90
25688;DHT22;17407;51.120;3.702;2023-08-06T14:24:21;18.50;99.90
25688;DHT22;17407;51.120;3.702;2023-08-06T14:26:47;18.50;99.90
25688;DHT22;17407;51.120;3.702;2023-08-06T14:29:13;18.50;99.90
25688;DHT22;17407;51.120;3.702;2023-08-06T14:31:39;18.40;99.90
25688;DHT22;17407;51.120;3.702;2023-08-06T14:34:05;18.60;99.90
25688;DHT22;17407;51.120;3.702;2023-08-06T14:36:31;18.70;99.90
25688;DHT22;17407;51.120;3.702;2023-08-06T14:38:57;18.70;99.90
25688;DHT22;17407;51.120;3.702;2023-08-06T14:41:23;18.70;99.90
25688;DHT22;17407;51.120;3.702;2023-08-06T14:43:50;18.70;99.90
25688;DHT22;17407;51.120;3.702;2023-08-06T14:46:15;18.70;99.90
25688;DHT22;17407;51.120;3.702;2023-08-06T14:48:41;18.70;99.90
25688;DHT22;17407;51.120;3.702;2023-08-06T14:51:08;18.50;99.90
25688;DHT22;17407;51.120;3.702;2023-08-06T14:53:33;18.30;99.90
25688;DHT22;17407;51.120;3.702;2023-08-06T14:55:59;18.20;99.90
25688;DHT22;17407;51.120;3.702;2023-08-06T14:58:25;18.20;99.90
25688;DHT22;17407;51.120;3.702;2023-08-06T15:00:50;18.20;99.90
25688;DHT22;17407;51.120;3.702;2023-08-06T15:03:16;18.10;99.90
25688;DHT22;17407;51.120;3.702;2023-08-06T15:05:49;18.10;99.90
25688;DHT22;17407;51.120;3.702;2023-08-06T15:08:14;18.10;99.90
25688;DHT22;17407;51.120;3.702;2023-08-06T15:10:40;18.20;99.90
25688;DHT22;17407;51.120;3.702;2023-08-06T15:13:06;18.40;99.90
25688;DHT22;17407;51.120;3.702;2023-08-06T15:15:32;18.60;99.90
25688;DHT22;17407;51.120;3.702;2023-08-06T15:17:57;18.70;99.90
25688;DHT22;17407;51.120;3.702;2023-08-06T15:20:24;18.60;99.90
25688;DHT22;17407;51.120;3.702;2023-08-06T15:22:49;18.60;99.90
25688;DHT22;17407;51.120;3.702;2023-08-06T15:25:15;18.70;99.90
25688;DHT22;17407;51.120;3.702;2023-08-06T15:27:41;18.80;99.90
25688;DHT22;17407;51.120;3.702;2023-08-06T15:30:07;18.70;99.90
25688;DHT22;17407;51.120;3.702;2023-08-06T15:32:33;18.70;99.90
25688;DHT22;17407;51.120;3.702;2023-08-06T15:34:58;18.60;99.90
25688;DHT22;17407;51.120;3.702;2023-08-06T15:37:24;18.60;99.90
25688;DHT22;17407;51.120;3.702;2023-08-06T15:39:51;18.90;99.90